utilisation pie
utilisation bar
humidity graph
temperature graph
Station id: f3370e for 2 days

start:   stop:  

day time in temp out temp in RH out RH H quota rule action
2020-01-28 00:22:53 6.1 5.7 83 96 112 h 0
2020-01-28 00:53:05 5.9 5.5 85 96 110 h 0
2020-01-28 01:23:17 5.8 5.4 85 96 110 m
2
2020-01-28 01:53:29 6.0 5.4 82 96 113 h 0
2020-01-28 02:23:41 5.9 5.4 84 96 111 h 0
2020-01-28 02:53:53 5.8 5.4 85 96 111 h 0
2020-01-28 03:24:05 5.7 5.4 85 96 110 h 0
2020-01-28 03:54:17 5.7 5.5 85 96 111 m
2
2020-01-28 04:24:29 6.1 5.5 80 96 115 h 0
2020-01-28 04:54:41 5.9 5.5 83 96 112 h 0
2020-01-28 05:24:53 5.8 5.3 84 96 111 h 0
2020-01-28 05:55:05 5.8 5.3 84 96 110 h 0
2020-01-28 06:25:34 5.7 5.3 85 97 111 h 0
2020-01-28 06:55:46 5.7 5.2 85 97 111 h 0
2020-01-28 07:25:58 5.7 5.2 85 97 111 h 0
2020-01-28 07:56:11 5.6 5.1 86 96 108 m
2
2020-01-28 08:26:23 5.9 5.0 81 96 111 h 0
2020-01-28 08:56:35 5.8 4.8 84 96 107 h 0
2020-01-28 09:26:47 5.7 4.7 84 96 106 h 0
2020-01-28 09:56:59 5.7 4.7 85 96 106 h 0
2020-01-28 10:27:11 5.7 4.8 86 96 106 m
2
2020-01-28 10:57:23 6.0 4.9 82 96 108 h 0
2020-01-28 11:27:36 5.8 5.0 85 96 107 h 0
2020-01-28 11:57:48 5.7 5.0 86 96 107 m
2
2020-01-28 12:28:19 6.0 5.0 82 96 110 h 0
2020-01-28 12:58:50 5.8 5.3 85 95 108 m
2
2020-01-28 13:29:02 6.1 5.3 82 95 110 h 0
2020-01-28 13:59:14 5.9 5.4 85 96 110 h 0
2020-01-28 14:29:26 5.8 5.5 85 96 111 h 0
2020-01-28 14:59:37 5.7 5.6 86 96 111 m
2
2020-01-28 15:29:49 6.0 5.6 82 95 113 h 0
2020-01-28 16:00:00 5.9 5.5 84 96 111 h 0
2020-01-28 16:30:12 5.8 5.4 85 96 110 h 0
2020-01-28 17:00:23 5.7 5.4 85 95 109 m
2
2020-01-28 17:30:35 6.0 5.4 82 95 111 h 0
2020-01-28 18:01:06 5.8 5.4 85 95 109 h 0
2020-01-28 18:31:38 5.7 5.1 85 95 108 h 0
2020-01-28 19:01:50 5.7 5.1 85 96 109 h 0
2020-01-28 19:32:02 5.6 5.0 85 95 107 h 0
2020-01-28 20:02:14 5.6 4.9 86 95 106 m
2
2020-01-28 20:32:26 5.8 4.9 81 96 111 h 0
2020-01-28 21:02:38 5.7 4.9 84 96 108 h 0
2020-01-28 21:32:50 5.6 4.9 84 96 108 h 0
2020-01-28 22:03:02 5.6 4.6 85 96 106 h 0
2020-01-28 22:33:14 5.5 4.4 85 96 104 h 0
2020-01-28 23:03:27 5.5 4.4 86 96 104 m
2
2020-01-28 23:33:58 5.8 3.9 81 96 105 h 0
2020-01-29 00:04:10 5.5 3.6 84 96 101 h 0
2020-01-29 00:34:22 5.4 3.6 84 97 101 h 0
2020-01-29 01:04:34 5.4 3.5 85 97 101 h 0
2020-01-29 01:34:46 5.3 3.8 85 97 103 h 0
2020-01-29 02:04:58 5.3 4.0 85 96 104 h 0
2020-01-29 02:35:10 5.2 4.1 85 96 104 h 0
2020-01-29 03:05:22 5.2 4.3 85 96 106 h 0
2020-01-29 03:35:35 5.2 4.5 85 97 109 h 0
2020-01-29 04:05:47 5.2 4.6 85 97 109 h 0
2020-01-29 04:35:59 5.1 4.5 86 96 108 h 0
2020-01-29 05:06:11 5.1 4.4 86 96 107 h 0
2020-01-29 05:36:23 5.1 4.2 86 96 106 h 0
2020-01-29 06:06:35 5.0 4.1 86 96 105 h 0
2020-01-29 06:36:47 5.0 3.8 86 95 102 c 0
2020-01-29 07:06:59 4.9 3.4 86 96 101 c 0
2020-01-29 07:37:11 4.9 3.1 86 95 98 c 0
2020-01-29 08:07:23 4.8 3.3 86 95 100 c 0
2020-01-29 08:37:35 4.8 3.7 86 94 102 c 0
2020-01-29 09:07:47 4.8 3.9 86 94 103 c 0
2020-01-29 09:37:59 4.8 4.1 86 94 104 c 0
2020-01-29 10:08:11 4.8 4.2 86 93 104 c 0
2020-01-29 10:38:23 4.8 4.1 86 95 106 c 0
2020-01-29 11:08:35 4.8 4.1 86 95 106 c 0
2020-01-29 11:38:47 4.8 4.4 86 96 108 c 0
2020-01-29 12:08:59 4.8 4.5 86 96 109 c 0
2020-01-29 12:39:11 4.8 4.8 86 94 109 c 0
2020-01-29 13:09:23 4.8 4.9 86 95 111 c 0
2020-01-29 13:39:35 4.9 4.9 86 96 112 c 0
2020-01-29 14:09:47 4.9 5.2 86 96 114 c 0
2020-01-29 14:39:59 4.9 5.3 86 94 112 c 0
2020-01-29 15:10:12 4.9 5.2 86 94 111 c 0
2020-01-29 15:40:24 4.9 5.2 86 95 113 c 0


2020-01-29 16:29:49 CET